Time;durP1;ratioP1;P1;durP2;ratioP2;P2;SDS_P1;SDS_P2;PMS_P1;PMS_P2;Temp;Humidity;BMP_temperature;BMP_pressure;BME280_temperature;BME280_humidity;BME280_pressure;Samples;Min_cycle;Max_cycle;Signal;HPM_P1;HPM_P2
2022/09/13 00:00:32;;;;;;;10.57;7.55;;;;;;;11.03;58.23;99513.66;5018980;28;20039;-66
2022/09/13 00:02:58;;;;;;;10.48;7.03;;;;;;;11.02;58.51;99503.94;5037525;28;20086;-64
2022/09/13 00:05:22;;;;;;;10.93;7.30;;;;;;;11.05;58.06;99503.72;5037167;28;20056;-65
2022/09/13 00:07:47;;;;;;;10.68;7.53;;;;;;;11.05;58.38;99497.53;5036840;28;20127;-65
2022/09/13 00:10:12;;;;;;;12.82;7.10;;;;;;;11.00;57.88;99500.53;5036528;28;20048;-66
2022/09/13 00:12:37;;;;;;;15.35;7.43;;;;;;;10.93;58.11;99493.97;5036569;28;20051;-69
2022/09/13 00:15:02;;;;;;;9.38;6.97;;;;;;;10.89;58.51;99497.84;5036422;28;20041;-69
2022/09/13 00:17:28;;;;;;;15.40;7.00;;;;;;;10.94;58.25;99495.69;5035850;28;20044;-69
2022/09/13 00:19:52;;;;;;;11.13;6.70;;;;;;;10.86;58.33;99490.06;5037831;28;20048;-71
2022/09/13 00:22:17;;;;;;;13.25;7.65;;;;;;;10.82;59.03;99488.59;5036064;28;20040;-67
2022/09/13 00:24:42;;;;;;;8.27;6.38;;;;;;;10.76;58.51;99481.03;5049033;28;20131;-68
2022/09/13 00:27:06;;;;;;;10.70;7.40;;;;;;;10.70;58.98;99482.38;5056137;28;20047;-70
2022/09/13 00:29:31;;;;;;;11.50;6.82;;;;;;;10.66;59.09;99488.88;5038333;28;20047;-68
2022/09/13 00:31:56;;;;;;;16.45;7.20;;;;;;;10.68;58.97;99480.78;5056493;28;20082;-67
2022/09/13 00:34:21;;;;;;;12.15;7.10;;;;;;;10.73;58.74;99479.44;5056835;28;20059;-67
2022/09/13 00:36:46;;;;;;;12.13;7.07;;;;;;;10.77;58.40;99486.25;5056166;28;20135;-67
2022/09/13 00:39:11;;;;;;;10.02;6.93;;;;;;;10.80;58.61;99478.03;5056142;28;20035;-68
2022/09/13 00:41:36;;;;;;;10.55;6.82;;;;;;;10.88;58.47;99480.13;5057019;28;20075;-67
2022/09/13 00:44:01;;;;;;;11.75;7.68;;;;;;;10.83;58.75;99474.31;5060604;28;20502;-66
2022/09/13 00:46:37;;;;;;;9.55;6.75;;;;;;;10.85;58.60;99480.34;5060909;28;20039;-67
2022/09/13 00:49:08;;;;;;;9.70;6.40;;;;;;;10.93;58.31;99483.31;5056731;28;20043;-66
2022/09/13 00:51:33;;;;;;;13.50;7.40;;;;;;;10.84;57.83;99478.63;5055516;28;20059;-67
2022/09/13 00:53:59;;;;;;;13.70;6.25;;;;;;;10.84;57.95;99474.16;5037961;28;20036;-68
2022/09/13 00:56:44;;;;;;;10.88;6.25;;;;;;;10.77;58.71;99482.75;5020524;28;20044;-70
2022/09/13 00:59:22;;;;;;;11.95;7.05;;;;;;;10.80;58.29;99480.72;5055378;28;20047;-68
2022/09/13 01:01:51;;;;;;;13.50;7.97;;;;;;;10.76;58.17;99481.03;5037064;28;20046;-73
2022/09/13 01:04:19;;;;;;;12.00;7.07;;;;;;;10.74;58.83;99483.81;5055211;28;20040;-68
2022/09/13 01:06:45;;;;;;;12.82;7.68;;;;;;;10.77;58.10;99483.59;5055217;28;20040;-65
2022/09/13 01:09:11;;;;;;;13.32;7.47;;;;;;;10.73;58.07;99486.59;5055424;28;20127;-63
2022/09/13 01:11:49;;;;;;;11.63;6.78;;;;;;;10.66;58.56;99491.53;5055663;28;20067;-63
2022/09/13 01:14:15;;;;;;;14.23;7.18;;;;;;;10.67;58.66;99484.41;5055195;28;20051;-63
2022/09/13 01:16:40;;;;;;;9.57;7.10;;;;;;;10.64;58.22;99474.81;5054543;28;20447;-64
2022/09/13 01:19:04;;;;;;;9.75;7.20;;;;;;;10.53;58.74;99477.41;5055044;28;20471;-66
2022/09/13 01:21:57;;;;;;;12.68;6.88;;;;;;;10.58;58.39;99471.75;5055243;28;20245;-70
2022/09/13 01:24:55;;;;;;;12.00;8.13;;;;;;;10.48;58.64;99469.78;5037108;28;20043;-67
2022/09/13 01:27:28;;;;;;;12.38;7.53;;;;;;;10.42;59.25;99475.53;5037087;28;20392;-68
2022/09/13 01:30:22;;;;;;;11.95;7.05;;;;;;;10.35;59.56;99474.31;5054026;28;20126;-67
2022/09/13 01:33:05;;;;;;;12.25;6.97;;;;;;;10.39;59.44;99478.44;5055320;28;20123;-68
2022/09/13 01:35:48;;;;;;;10.77;6.95;;;;;;;10.27;59.39;99467.84;5054804;28;20055;-67
2022/09/13 01:38:43;;;;;;;17.30;7.40;;;;;;;10.25;59.65;99475.94;5055146;28;20569;-69
2022/09/13 01:41:14;;;;;;;;;;;;;;;10.35;59.02;99478.78;5037402;28;20130;-69
2022/09/13 01:43:51;;;;;;;10.05;6.20;;;;;;;10.28;59.26;99481.03;5054632;28;19916;-69
2022/09/13 01:46:37;;;;;;;11.95;7.15;;;;;;;10.26;59.61;99477.66;5054982;28;20040;-68
2022/09/13 01:49:18;;;;;;;12.23;7.47;;;;;;;10.22;59.86;99470.81;5054959;28;20059;-65
2022/09/13 01:51:53;;;;;;;9.88;6.82;;;;;;;10.24;59.82;99473.38;5038462;28;20046;-68
2022/09/13 01:54:30;;;;;;;10.25;7.25;;;;;;;10.18;59.76;99472.84;5037427;28;20122;-68
2022/09/13 01:57:08;;;;;;;15.00;7.50;;;;;;;10.19;60.13;99468.38;5055619;28;20410;-69
2022/09/13 01:59:53;;;;;;;11.35;6.97;;;;;;;10.33;59.48;99467.38;5055169;28;20059;-69
2022/09/13 02:02:21;;;;;;;11.48;6.90;;;;;;;10.20;60.16;99470.09;5039623;28;20039;-70
2022/09/13 02:04:53;;;;;;;13.27;6.93;;;;;;;10.20;59.91;99467.41;5057286;28;20139;-69
2022/09/13 02:07:36;;;;;;;11.75;6.93;;;;;;;10.24;60.23;99460.91;5054818;28;20499;-70
2022/09/13 02:10:14;;;;;;;13.88;7.25;;;;;;;10.27;59.68;99462.50;5055212;28;20744;-67
2022/09/13 02:12:42;;;;;;;11.38;6.53;;;;;;;10.24;59.81;99455.59;5055117;28;20046;-66
2022/09/13 02:15:32;;;;;;;12.30;7.60;;;;;;;10.23;60.16;99464.53;5055585;28;20546;-65
2022/09/13 02:18:05;;;;;;;11.43;6.93;;;;;;;10.16;60.00;99461.41;5054922;28;20040;-65
2022/09/13 02:20:34;;;;;;;9.73;6.55;;;;;;;10.11;60.27;99463.59;5055825;28;20620;-66
2022/09/13 02:23:03;;;;;;;12.35;6.90;;;;;;;10.07;60.80;99458.56;5036500;28;20048;-65
2022/09/13 02:25:31;;;;;;;8.65;6.35;;;;;;;10.06;60.70;99463.06;5054357;28;20105;-65
2022/09/13 02:28:01;;;;;;;11.23;6.82;;;;;;;10.07;60.58;99461.25;5052268;28;20048;-66
2022/09/13 02:30:30;;;;;;;12.25;6.93;;;;;;;10.04;60.88;99456.16;5054725;28;20375;-65
2022/09/13 02:33:00;;;;;;;14.77;6.75;;;;;;;10.01;60.63;99453.72;5054462;28;20048;-65
2022/09/13 02:35:45;;;;;;;9.00;7.03;;;;;;;10.02;60.82;99458.06;5054258;28;20044;-64
2022/09/13 02:38:16;;;;;;;9.57;6.13;;;;;;;10.03;60.65;99459.78;5054179;28;20465;-64
2022/09/13 02:41:01;;;;;;;9.98;6.63;;;;;;;10.04;60.94;99458.81;5056470;28;20089;-64
2022/09/13 02:43:36;;;;;;;;;;;;;;;10.15;60.13;99458.91;5040228;28;20063;-65
2022/09/13 02:46:39;;;;;;;8.90;6.60;;;;;;;10.14;60.10;99457.19;5058502;28;19916;-65
2022/09/13 02:49:18;;;;;;;10.65;6.82;;;;;;;10.05;60.59;99449.84;5057425;28;20566;-64
2022/09/13 02:52:06;;;;;;;10.80;6.68;;;;;;;10.03;60.42;99452.66;5057361;28;20039;-64
2022/09/13 02:54:31;;;;;;;11.98;6.32;;;;;;;10.00;60.90;99449.34;5054022;28;20036;-64
2022/09/13 02:57:07;;;;;;;15.02;7.50;;;;;;;10.03;61.36;99454.47;5036859;28;20047;-64
2022/09/13 02:59:33;;;;;;;13.23;8.73;;;;;;;10.06;60.79;99454.22;5039310;28;20085;-64
2022/09/13 03:02:21;;;;;;;11.77;9.00;;;;;;;10.10;60.83;99442.38;5058287;28;20063;-76
2022/09/13 03:04:46;;;;;;;15.73;9.10;;;;;;;10.03;60.73;99438.47;5040790;28;20059;-64
2022/09/13 03:07:13;;;;;;;16.75;10.23;;;;;;;10.04;60.68;99440.19;5058181;28;20063;-66
2022/09/13 03:10:08;;;;;;;19.95;10.57;;;;;;;10.08;60.54;99436.31;5039441;28;20052;-64
2022/09/13 03:12:51;;;;;;;11.48;8.95;;;;;;;10.04;60.39;99427.72;4995798;28;20611;-65
2022/09/13 03:15:19;;;;;;;14.15;10.40;;;;;;;10.01;60.92;99435.91;4995452;28;20068;-65
2022/09/13 03:17:46;;;;;;;12.77;8.55;;;;;;;10.03;60.40;99439.34;4995393;28;20092;-67
2022/09/13 03:20:24;;;;;;;13.35;7.97;;;;;;;10.05;60.89;99426.72;4995641;28;20046;-66
2022/09/13 03:23:04;;;;;;;16.95;8.25;;;;;;;10.13;60.92;99428.84;4978676;28;20055;-65
2022/09/13 03:26:16;;;;;;;10.90;7.50;;;;;;;10.26;60.48;99434.16;4995053;28;20045;-64
2022/09/13 03:28:53;;;;;;;12.40;7.90;;;;;;;10.35;60.05;99434.34;4883561;29;20044;-66
2022/09/13 03:31:27;;;;;;;14.00;7.93;;;;;;;10.35;59.78;99431.69;4898672;29;20050;-65
2022/09/13 03:34:01;;;;;;;12.00;8.05;;;;;;;10.43;59.46;99428.44;4898690;29;20676;-65
2022/09/13 03:37:01;;;;;;;13.13;8.50;;;;;;;10.57;59.06;99427.41;4898354;29;20063;-65
2022/09/13 03:39:47;;;;;;;10.63;7.10;;;;;;;10.52;59.31;99431.25;4845572;29;20052;-64
2022/09/13 03:42:33;;;;;;;14.95;8.15;;;;;;;10.49;59.51;99430.66;4861857;29;20058;-65
2022/09/13 03:45:02;;;;;;;11.70;7.75;;;;;;;10.43;59.52;99434.63;4861844;29;20456;-65
2022/09/13 03:47:33;;;;;;;9.77;7.85;;;;;;;10.49;59.49;99428.84;4845712;29;20055;-65
2022/09/13 03:49:59;;;;;;;13.45;8.52;;;;;;;10.55;59.16;99427.53;4897301;29;20045;-66
2022/09/13 03:52:24;;;;;;;13.50;8.25;;;;;;;10.51;59.37;99429.56;4899717;29;20055;-65
2022/09/13 03:54:51;;;;;;;11.00;8.00;;;;;;;10.57;59.23;99417.59;4916984;28;20047;-65
2022/09/13 03:57:22;;;;;;;13.25;7.80;;;;;;;10.75;59.32;99426.00;4917115;28;20526;-64
2022/09/13 03:59:52;;;;;;;13.30;8.13;;;;;;;10.84;58.47;99410.16;4954078;28;20269;-66
2022/09/13 04:02:18;;;;;;;13.63;8.65;;;;;;;10.78;58.82;99413.31;4974889;28;20133;-66
2022/09/13 04:04:44;;;;;;;9.88;7.63;;;;;;;10.69;59.05;99408.69;4974997;28;20149;-66
2022/09/13 04:07:10;;;;;;;13.43;8.27;;;;;;;10.71;58.91;99427.22;4974891;28;20385;-67
2022/09/13 04:09:35;;;;;;;13.13;8.85;;;;;;;10.63;59.28;99427.78;4974918;28;20133;-65
2022/09/13 04:12:00;;;;;;;10.98;6.88;;;;;;;10.64;58.68;99417.97;4975016;28;20568;-65
2022/09/13 04:14:25;;;;;;;11.25;8.55;;;;;;;10.62;59.41;99415.41;4958728;28;20471;-65
2022/09/13 04:16:50;;;;;;;12.30;8.13;;;;;;;10.86;58.16;99420.72;5053041;28;20428;-65
2022/09/13 04:19:15;;;;;;;13.00;7.70;;;;;;;10.88;58.19;99411.63;5055806;28;20484;-65
2022/09/13 04:21:40;;;;;;;11.27;8.07;;;;;;;11.10;57.80;99421.50;5056651;28;20052;-64
2022/09/13 04:24:05;;;;;;;16.77;8.70;;;;;;;11.15;57.20;99418.50;5056206;28;20128;-63
2022/09/13 04:26:31;;;;;;;14.35;9.00;;;;;;;11.05;57.65;99417.50;5056411;28;20043;-63
2022/09/13 04:28:55;;;;;;;14.45;7.78;;;;;;;11.07;57.48;99413.72;5037729;28;20123;-63
2022/09/13 04:31:20;;;;;;;17.23;9.15;;;;;;;10.97;57.79;99426.06;5056022;28;20451;-64
2022/09/13 04:33:45;;;;;;;15.88;9.00;;;;;;;10.99;57.77;99424.16;5021076;28;20955;-64
2022/09/13 04:36:10;;;;;;;14.45;7.90;;;;;;;10.88;57.88;99424.97;5055637;28;20498;-64
2022/09/13 04:38:36;;;;;;;15.13;8.18;;;;;;;10.94;57.97;99420.16;5055709;28;20491;-64
2022/09/13 04:41:01;;;;;;;10.80;7.38;;;;;;;11.12;57.02;99427.59;5037456;28;20048;-64
2022/09/13 04:43:26;;;;;;;15.05;8.48;;;;;;;11.01;57.38;99422.22;5055622;28;20040;-63
2022/09/13 04:45:51;;;;;;;13.77;8.80;;;;;;;10.86;58.22;99423.38;5055583;28;20058;-63
2022/09/13 04:48:15;;;;;;;18.33;8.02;;;;;;;10.93;58.23;99421.13;5037890;28;20399;-64
2022/09/13 04:50:40;;;;;;;14.90;8.18;;;;;;;10.75;58.80;99426.88;5037791;28;20465;-65
2022/09/13 04:53:04;;;;;;;14.60;9.20;;;;;;;10.80;57.73;99434.53;5037646;28;20040;-64
2022/09/13 04:55:30;;;;;;;14.63;8.52;;;;;;;10.77;58.15;99434.75;5055433;28;20529;-65
2022/09/13 04:57:55;;;;;;;16.65;8.38;;;;;;;10.59;58.72;99428.16;5055169;28;20409;-64
2022/09/13 05:00:20;;;;;;;17.42;9.73;;;;;;;10.67;59.09;99431.94;5055531;28;20459;-65
2022/09/13 05:02:44;;;;;;;14.98;8.98;;;;;;;10.62;58.90;99426.09;5055256;28;20486;-64
2022/09/13 05:05:09;;;;;;;15.88;8.15;;;;;;;10.57;58.90;99428.25;5054553;28;20056;-64
2022/09/13 05:07:34;;;;;;;12.20;7.72;;;;;;;10.61;58.72;99432.38;5055709;28;20524;-65
2022/09/13 05:09:58;;;;;;;13.23;8.90;;;;;;;10.61;59.32;99436.88;5019988;28;20044;-65
2022/09/13 05:12:23;;;;;;;12.75;8.40;;;;;;;10.66;59.74;99434.72;5037286;28;20043;-65
2022/09/13 05:14:48;;;;;;;12.18;7.63;;;;;;;10.72;59.08;99444.94;5055345;28;20131;-64
2022/09/13 05:17:12;;;;;;;17.27;8.27;;;;;;;10.75;59.30;99432.19;5055106;28;20398;-65
2022/09/13 05:19:37;;;;;;;12.57;8.27;;;;;;;10.79;59.24;99432.81;5055052;28;20048;-66
2022/09/13 05:22:02;;;;;;;12.02;8.32;;;;;;;10.90;58.93;99448.88;5055448;28;20028;-66
2022/09/13 05:24:26;;;;;;;16.42;9.15;;;;;;;10.96;58.20;99440.38;5054895;28;20075;-66
2022/09/13 05:26:52;;;;;;;15.80;9.18;;;;;;;10.94;57.61;99433.50;5055751;28;20088;-65
2022/09/13 05:29:16;;;;;;;12.23;7.20;;;;;;;10.84;58.03;99442.16;5055457;28;20031;-62
2022/09/13 05:31:42;;;;;;;14.15;9.23;;;;;;;10.68;58.79;99432.78;5037375;28;20047;-65
2022/09/13 05:34:10;;;;;;;12.00;8.45;;;;;;;10.59;59.01;99436.16;5055395;28;20447;-64
2022/09/13 05:36:35;;;;;;;13.23;7.88;;;;;;;10.51;59.24;99436.69;5055246;28;20057;-66
2022/09/13 05:39:00;;;;;;;19.02;9.23;;;;;;;10.53;59.58;99435.63;5055573;28;20056;-64
2022/09/13 05:41:25;;;;;;;16.15;8.70;;;;;;;10.53;59.64;99448.09;5039715;28;20046;-65
2022/09/13 05:43:50;;;;;;;13.10;8.25;;;;;;;10.59;59.59;99444.16;5061350;28;20043;-65
2022/09/13 05:46:19;;;;;;;12.35;8.25;;;;;;;10.74;59.15;99449.16;5043555;28;20039;-64
2022/09/13 05:48:44;;;;;;;28.33;10.13;;;;;;;10.79;59.27;99451.50;5038832;28;20073;-64
2022/09/13 05:51:14;;;;;;;12.35;8.60;;;;;;;10.81;58.11;99453.09;5036860;28;20036;-64
2022/09/13 05:53:41;;;;;;;15.52;9.25;;;;;;;10.87;58.28;99451.75;5055660;28;20522;-65
2022/09/13 05:56:07;;;;;;;14.23;9.50;;;;;;;10.83;58.09;99437.81;5055448;28;20036;-65
2022/09/13 05:58:32;;;;;;;14.85;7.55;;;;;;;10.84;58.51;99441.31;5054665;28;20498;-65
2022/09/13 06:00:57;;;;;;;16.40;9.50;;;;;;;10.71;58.57;99436.09;5054887;28;20063;-65
2022/09/13 06:03:23;;;;;;;18.55;8.65;;;;;;;10.64;59.50;99433.97;5053580;28;20040;-65
2022/09/13 06:05:48;;;;;;;21.33;8.88;;;;;;;10.68;59.22;99430.97;5036384;28;20453;-65
2022/09/13 06:08:12;;;;;;;19.70;8.88;;;;;;;10.79;59.32;99440.81;5054790;28;20044;-65
2022/09/13 06:10:37;;;;;;;10.63;8.52;;;;;;;10.96;58.87;99436.84;5054488;28;20595;-66
2022/09/13 06:13:01;;;;;;;12.93;8.77;;;;;;;11.08;58.19;99441.25;5054284;28;20131;-65
2022/09/13 06:15:26;;;;;;;13.18;8.48;;;;;;;11.12;58.71;99443.59;5058745;28;20040;-65
2022/09/13 06:17:51;;;;;;;18.92;9.23;;;;;;;11.15;58.41;99439.84;5061473;28;20071;-65
2022/09/13 06:20:16;;;;;;;15.50;9.30;;;;;;;11.21;57.85;99437.53;5061468;28;20075;-65
2022/09/13 06:22:40;;;;;;;14.45;8.98;;;;;;;11.34;57.73;99434.78;5042926;28;20040;-64
2022/09/13 06:25:05;;;;;;;14.15;9.95;;;;;;;11.45;57.19;99441.94;5042711;28;20048;-66
2022/09/13 06:27:30;;;;;;;13.73;8.75;;;;;;;11.51;57.00;99436.97;5061157;28;20127;-66
2022/09/13 06:29:55;;;;;;;15.55;8.70;;;;;;;11.60;56.90;99435.41;5060980;28;20123;-66
2022/09/13 06:32:19;;;;;;;15.20;8.55;;;;;;;11.66;56.62;99437.56;5060952;28;20092;-67
2022/09/13 06:34:44;;;;;;;15.07;8.80;;;;;;;11.73;56.09;99438.81;5042928;28;20047;-66
2022/09/13 06:37:08;;;;;;;13.63;8.13;;;;;;;11.73;55.99;99437.97;5061134;28;20059;-65
2022/09/13 06:39:34;;;;;;;16.90;8.25;;;;;;;11.75;56.12;99436.88;5060758;28;20516;-65
2022/09/13 06:41:59;;;;;;;13.63;8.20;;;;;;;11.74;56.25;99440.47;5042661;28;20622;-65
2022/09/13 06:44:37;;;;;;;12.27;7.63;;;;;;;11.80;56.25;99432.03;5042310;28;20047;-66
2022/09/13 06:47:01;;;;;;;17.27;8.00;;;;;;;11.82;55.96;99434.59;5060838;28;20039;-78
2022/09/13 06:49:28;;;;;;;14.18;7.78;;;;;;;11.84;56.15;99436.16;5042617;28;20504;-67
2022/09/13 06:51:52;;;;;;;16.55;8.25;;;;;;;11.84;55.89;99428.16;5061045;28;20398;-65
2022/09/13 06:54:17;;;;;;;13.43;7.82;;;;;;;11.83;56.25;99423.78;5061276;28;20391;-65
2022/09/13 06:56:41;;;;;;;16.42;7.68;;;;;;;11.81;55.13;99428.38;5062646;28;20050;-63
2022/09/13 06:59:08;;;;;;;11.05;7.47;;;;;;;11.83;54.99;99429.13;5062950;28;20580;-67
2022/09/13 07:01:39;;;;;;;13.48;8.20;;;;;;;11.88;55.80;99424.25;5044315;28;20062;-69
2022/09/13 07:04:05;;;;;;;18.50;7.95;;;;;;;11.93;55.12;99422.06;5045854;28;20047;-67
2022/09/13 07:06:33;;;;;;;15.85;7.63;;;;;;;12.00;55.55;99415.25;5064538;28;20501;-66
2022/09/13 07:08:59;;;;;;;15.32;7.68;;;;;;;12.05;54.39;99419.38;5064841;28;20051;-66
2022/09/13 07:11:27;;;;;;;18.70;9.88;;;;;;;12.15;54.45;99415.81;5064747;28;20062;-65
2022/09/13 07:13:54;;;;;;;13.43;7.65;;;;;;;12.07;54.92;99418.28;5061686;28;20055;-66
2022/09/13 07:16:22;;;;;;;24.15;7.53;;;;;;;12.13;54.64;99411.56;5060977;28;20050;-65
2022/09/13 07:18:54;;;;;;;18.05;8.10;;;;;;;12.31;54.39;99404.72;5060978;28;20131;-66
2022/09/13 07:21:21;;;;;;;14.43;8.70;;;;;;;12.46;53.79;99408.81;5064233;28;20044;-65
2022/09/13 07:23:45;;;;;;;18.30;8.10;;;;;;;12.52;53.58;99404.78;5065335;28;20474;-66
2022/09/13 07:26:10;;;;;;;12.85;7.90;;;;;;;12.61;53.96;99407.53;5045674;28;20477;-64
2022/09/13 07:28:37;;;;;;;20.50;8.73;;;;;;;12.81;53.36;99413.03;5062190;28;20101;-66
2022/09/13 07:31:17;;;;;;;14.82;8.00;;;;;;;13.10;53.00;99411.38;5044088;28;20067;-65
2022/09/13 07:33:43;;;;;;;16.58;8.30;;;;;;;13.30;52.14;99393.66;5059865;28;20066;-66
2022/09/13 07:36:10;;;;;;;14.05;8.18;;;;;;;13.64;51.32;99394.25;5057459;28;20043;-65
2022/09/13 07:38:37;;;;;;;14.65;8.15;;;;;;;13.93;50.58;99392.50;5023240;28;20479;-65
2022/09/13 07:41:05;;;;;;;16.83;8.27;;;;;;;14.31;49.76;99386.38;5057396;28;20407;-66
2022/09/13 07:43:31;;;;;;;12.65;7.55;;;;;;;15.27;47.70;99394.38;5057998;28;20101;-66
2022/09/13 07:46:04;;;;;;;13.55;7.47;;;;;;;16.87;45.25;99383.16;5057258;28;20067;-66
2022/09/13 07:48:31;;;;;;;19.20;8.43;;;;;;;18.70;40.90;99381.69;5057596;28;20586;-66
2022/09/13 07:51:07;;;;;;;13.02;8.00;;;;;;;20.11;39.27;99381.06;5057755;28;20290;-65
2022/09/13 07:53:33;;;;;;;14.52;7.65;;;;;;;21.24;36.04;99382.16;5038754;28;20127;-66
2022/09/13 07:56:05;;;;;;;11.57;6.82;;;;;;;22.97;32.59;99377.94;5057522;28;20047;-65
2022/09/13 07:58:36;;;;;;;15.35;7.60;;;;;;;24.06;31.80;99368.22;5056122;28;20051;-67
2022/09/13 08:01:17;;;;;;;10.18;6.93;;;;;;;24.97;30.68;99375.00;5057040;28;20048;-66
2022/09/13 08:03:42;;;;;;;10.23;7.15;;;;;;;25.70;28.12;99361.34;5055486;28;20036;-69
2022/09/13 08:06:07;;;;;;;19.10;7.85;;;;;;;26.73;26.62;99368.50;5056870;28;20052;-69
2022/09/13 08:08:33;;;;;;;14.35;8.45;;;;;;;27.35;25.27;99375.81;5038384;28;20036;-71
2022/09/13 08:11:00;;;;;;;12.38;7.93;;;;;;;27.53;25.05;99364.06;5056743;28;20124;-70
2022/09/13 08:13:26;;;;;;;11.18;8.07;;;;;;;27.70;24.37;99362.44;5056721;28;20043;-69
2022/09/13 08:15:50;;;;;;;11.98;7.38;;;;;;;27.85;24.23;99358.50;5056673;28;20474;-71
2022/09/13 08:18:18;;;;;;;13.48;7.30;;;;;;;27.84;24.27;99365.88;5056617;28;20142;-70
2022/09/13 08:20:43;;;;;;;8.18;6.43;;;;;;;27.43;23.97;99360.97;5056509;28;20490;-70
2022/09/13 08:23:10;;;;;;;11.93;6.35;;;;;;;27.09;24.45;99359.59;5056630;28;20561;-72
2022/09/13 08:25:37;;;;;;;12.15;6.75;;;;;;;27.20;24.57;99358.88;5056697;28;20075;-70
2022/09/13 08:28:07;;;;;;;10.13;6.28;;;;;;;27.29;24.38;99356.72;5056588;28;20052;-69
2022/09/13 08:30:34;;;;;;;12.27;7.72;;;;;;;26.92;24.15;99356.59;5038489;28;20036;-70
2022/09/13 08:33:01;;;;;;;12.05;6.85;;;;;;;26.65;24.17;99358.63;5056793;28;20040;-70
2022/09/13 08:35:25;;;;;;;12.05;6.28;;;;;;;26.24;24.89;99345.38;5056411;28;20051;-70
2022/09/13 08:37:50;;;;;;;11.25;6.90;;;;;;;26.07;25.09;99373.44;5055576;28;20531;-70
2022/09/13 08:40:15;;;;;;;11.65;6.20;;;;;;;25.01;25.78;99349.00;5056448;28;20396;-70
2022/09/13 08:42:52;;;;;;;10.77;6.32;;;;;;;23.89;27.23;99354.97;5021593;28;20047;-72
2022/09/13 08:45:17;;;;;;;11.38;6.43;;;;;;;22.56;29.16;99354.09;5056516;28;20054;-70
2022/09/13 08:48:07;;;;;;;10.68;6.18;;;;;;;22.76;30.01;99352.44;5038158;28;20044;-70
2022/09/13 08:50:37;;;;;;;9.45;6.43;;;;;;;23.60;28.77;99338.03;5056366;28;20525;-69
2022/09/13 08:53:21;;;;;;;10.00;6.18;;;;;;;24.40;27.17;99334.63;5037757;28;20472;-69
2022/09/13 08:56:07;;;;;;;12.02;6.28;;;;;;;24.25;26.94;99332.09;5056514;28;20502;-70
2022/09/13 08:58:43;;;;;;;10.50;5.80;;;;;;;24.32;27.62;99335.66;5058842;28;20048;-69
2022/09/13 09:01:20;;;;;;;10.32;5.90;;;;;;;24.42;27.52;99321.63;5063930;28;20043;-69
2022/09/13 09:04:19;;;;;;;10.88;6.28;;;;;;;24.36;27.71;99334.22;5056390;28;20129;-71
2022/09/13 09:06:44;;;;;;;9.77;6.22;;;;;;;23.79;27.61;99318.25;5003244;28;20048;-71
2022/09/13 09:09:17;;;;;;;10.60;5.53;;;;;;;23.25;27.90;99316.22;5036208;28;20047;-71
2022/09/13 09:12:00;;;;;;;7.90;4.70;;;;;;;22.65;29.40;99314.88;5019630;28;20040;-71
2022/09/13 09:14:34;;;;;;;9.48;5.18;;;;;;;21.82;30.10;99314.56;5035827;28;20043;-71
2022/09/13 09:17:02;;;;;;;;;;;;;;;21.60;30.31;99306.34;5018714;28;20128;-71
2022/09/13 09:19:34;;;;;;;7.45;4.80;;;;;;;20.32;32.08;99310.06;5018409;28;20302;-70
2022/09/13 09:22:03;;;;;;;9.07;4.35;;;;;;;19.72;32.79;99313.47;5035946;28;20046;-71
2022/09/13 09:24:31;;;;;;;7.25;4.00;;;;;;;19.11;33.51;99303.31;5017973;28;20043;-70
2022/09/13 09:26:57;;;;;;;8.68;3.85;;;;;;;18.63;34.25;99298.81;5018105;28;20515;-70
2022/09/13 09:29:24;;;;;;;9.05;4.68;;;;;;;18.20;34.96;99292.69;5036071;28;20068;-71
2022/09/13 09:32:17;;;;;;;5.75;3.85;;;;;;;17.93;35.71;99293.84;5017832;28;20495;-66
2022/09/13 09:34:47;;;;;;;4.63;3.10;;;;;;;17.35;36.74;99304.53;5027591;28;20102;-66
2022/09/13 09:37:21;;;;;;;3.53;2.92;;;;;;;17.18;37.33;99324.28;5017089;28;20423;-66
2022/09/13 09:39:47;;;;;;;6.68;3.55;;;;;;;16.73;37.86;99292.19;5000795;28;20048;-69
2022/09/13 09:42:18;;;;;;;5.32;3.45;;;;;;;16.60;38.38;99290.72;5033982;28;20503;-69
2022/09/13 09:44:48;;;;;;;8.52;3.83;;;;;;;16.30;39.16;99299.22;5030104;28;20455;-69
2022/09/13 09:47:15;;;;;;;6.22;3.78;;;;;;;16.04;40.00;99287.50;5015101;28;20103;-68
2022/09/13 09:52:38;;;;;;;5.40;3.38;;;;;;;15.86;40.55;99295.59;4996624;28;20131;-70
2022/09/13 09:55:22;;;;;;;5.68;3.75;;;;;;;16.05;39.94;99283.84;5014557;28;20412;-68
2022/09/13 09:57:53;;;;;;;5.00;3.58;;;;;;;15.80;40.56;99283.56;5014779;28;20041;-69
2022/09/13 10:00:20;;;;;;;14.30;4.78;;;;;;;15.83;40.94;99279.75;5014353;28;20562;-68
2022/09/13 10:02:47;;;;;;;10.73;3.88;;;;;;;15.76;40.68;99286.75;5013388;28;20044;-68
2022/09/13 10:05:13;;;;;;;5.03;4.00;;;;;;;15.55;41.37;99270.88;5004359;28;20167;-69
2022/09/13 10:07:37;;;;;;;5.15;3.67;;;;;;;15.50;41.60;99268.59;5034100;28;20485;-70
2022/09/13 10:10:07;;;;;;;8.35;3.65;;;;;;;15.50;41.57;99273.13;5034812;28;20483;-69
2022/09/13 10:12:35;;;;;;;5.70;3.33;;;;;;;15.57;41.07;99291.25;5023662;28;20157;-70
2022/09/13 10:15:14;;;;;;;5.65;4.57;;;;;;;15.57;41.37;99274.28;5032609;28;20037;-71
2022/09/13 10:17:39;;;;;;;9.10;3.83;;;;;;;15.37;41.86;99269.94;5052041;28;20055;-70
2022/09/13 10:20:25;;;;;;;5.88;2.83;;;;;;;15.37;41.75;99270.78;5035215;28;20027;-69
2022/09/13 10:23:19;;;;;;;6.75;3.72;;;;;;;15.40;41.97;99270.50;5042456;28;20101;-70
2022/09/13 10:26:12;;;;;;;6.78;4.10;;;;;;;15.37;42.06;99267.25;5034040;28;20040;-69
2022/09/13 10:28:49;;;;;;;9.70;2.88;;;;;;;15.07;42.23;99273.75;5053387;28;20040;-69
2022/09/13 10:31:17;;;;;;;6.72;3.90;;;;;;;15.01;42.01;99261.75;5032916;28;20131;-70
2022/09/13 10:34:01;;;;;;;6.55;2.15;;;;;;;15.14;41.83;99264.09;5035510;28;20051;-69
2022/09/13 10:36:31;;;;;;;3.13;2.40;;;;;;;15.22;41.14;99270.47;5050446;28;20032;-70
2022/09/13 10:39:12;;;;;;;5.80;2.70;;;;;;;15.07;41.33;99260.34;5051740;28;20414;-65
2022/09/13 10:41:41;;;;;;;2.08;1.63;;;;;;;15.06;40.95;99261.31;5035609;28;20059;-67
2022/09/13 10:44:31;;;;;;;3.20;1.65;;;;;;;15.15;40.64;99265.81;5050418;28;20040;-67
2022/09/13 10:47:00;;;;;;;2.97;2.15;;;;;;;15.01;40.84;99248.34;5052536;28;20043;-65
2022/09/13 10:49:34;;;;;;;4.68;2.72;;;;;;;14.84;41.27;99249.13;5056808;28;20043;-66
2022/09/13 10:51:59;;;;;;;6.85;3.42;;;;;;;14.76;41.40;99239.13;5037374;28;20042;-67
2022/09/13 10:54:24;;;;;;;4.57;2.83;;;;;;;14.79;41.40;99240.63;5055253;28;20048;-67
2022/09/13 10:56:50;;;;;;;4.78;2.88;;;;;;;14.87;40.80;99244.31;5054864;28;20047;-66
2022/09/13 10:59:24;;;;;;;4.60;2.88;;;;;;;14.79;41.39;99237.97;5054565;28;20121;-66
2022/09/13 11:02:12;;;;;;;4.28;2.53;;;;;;;14.88;41.15;99235.28;5057899;28;20071;-66
2022/09/13 11:04:55;;;;;;;4.45;3.53;;;;;;;14.80;41.39;99243.19;5057806;28;20083;-65
2022/09/13 11:07:29;;;;;;;15.05;3.25;;;;;;;14.77;41.61;99229.22;5059068;28;20032;-65
2022/09/13 11:10:06;;;;;;;3.45;2.25;;;;;;;14.77;41.58;99232.75;5060548;28;20071;-70
2022/09/13 11:12:45;;;;;;;6.55;3.53;;;;;;;14.72;41.80;99221.59;5041194;28;20742;-69
2022/09/13 11:15:34;;;;;;;5.47;2.70;;;;;;;14.81;41.68;99233.28;5058750;28;20055;-70
2022/09/13 11:18:11;;;;;;;3.72;2.50;;;;;;;14.85;41.06;99219.44;5040036;28;20040;-65
2022/09/13 11:20:36;;;;;;;6.38;2.67;;;;;;;14.78;41.26;99215.69;5057474;28;20506;-64
2022/09/13 11:23:42;;;;;;;3.22;2.30;;;;;;;14.85;41.18;99229.34;5058000;28;20036;-64
2022/09/13 11:26:54;;;;;;;1.70;1.42;;;;;;;14.89;41.26;99218.19;5015877;28;20063;-64
2022/09/13 11:29:43;;;;;;;3.53;2.60;;;;;;;14.77;41.67;99205.09;4937604;28;20085;-74
2022/09/13 11:32:26;;;;;;;3.75;2.80;;;;;;;14.75;41.67;99209.75;4956805;28;20129;-69
2022/09/13 11:35:02;;;;;;;4.57;2.08;;;;;;;14.63;42.10;99208.22;4956774;28;20165;-68
2022/09/13 11:37:46;;;;;;;4.25;2.72;;;;;;;14.79;41.33;99209.28;4956266;28;20123;-69
2022/09/13 11:40:33;;;;;;;5.25;2.28;;;;;;;14.78;41.61;99212.16;4956639;28;20053;-70
2022/09/13 11:43:19;;;;;;;10.23;3.10;;;;;;;14.71;41.81;99197.59;4940588;28;20082;-71
2022/09/13 11:45:47;;;;;;;4.38;2.38;;;;;;;14.60;42.13;99195.94;4956887;28;20054;-70
2022/09/13 11:48:55;;;;;;;6.88;2.67;;;;;;;14.74;41.69;99203.53;4956786;28;20056;-73
2022/09/13 11:51:29;;;;;;;3.60;2.05;;;;;;;14.74;41.55;99189.28;4953442;28;20050;-71